sensor_id;sensor_type;location;lat;lon;timestamp;pressure;altitude;pressure_sealevel;temperature;humidity
32759;BME280;19125;52.360;9.974;2023-04-03T00:01:07;87870.38;;;-145.17;55.11
32759;BME280;19125;52.360;9.974;2023-04-03T00:03:32;87834.63;;;-145.17;55.32
32759;BME280;19125;52.360;9.974;2023-04-03T00:06:00;87870.38;;;-145.17;55.64
32759;BME280;19125;52.360;9.974;2023-04-03T00:08:25;87906.09;;;-145.17;55.48
32759;BME280;19125;52.360;9.974;2023-04-03T00:10:51;87957.72;;;-145.17;56.04
32759;BME280;19125;52.360;9.974;2023-04-03T00:13:16;87957.72;;;-145.17;55.98
32759;BME280;19125;52.360;9.974;2023-04-03T00:15:42;87910.06;;;-145.17;56.02
32759;BME280;19125;52.360;9.974;2023-04-03T00:18:08;87937.88;;;-145.17;56.37
32759;BME280;19125;52.360;9.974;2023-04-03T00:20:34;87921.97;;;-145.17;56.29
32759;BME280;19125;52.360;9.974;2023-04-03T00:23:02;87947.78;;;-145.17;56.25
32759;BME280;19125;52.360;9.974;2023-04-03T00:25:27;87999.41;;;-145.17;56.62
32759;BME280;19125;52.360;9.974;2023-04-03T00:27:53;87955.72;;;-145.17;56.84
32759;BME280;19125;52.360;9.974;2023-04-03T00:30:20;87979.56;;;-145.17;56.86
32759;BME280;19125;52.360;9.974;2023-04-03T00:32:48;87985.50;;;-145.17;57.02
32759;BME280;19125;52.360;9.974;2023-04-03T00:35:13;88033.16;;;-145.17;56.94
32759;BME280;19125;52.360;9.974;2023-04-03T00:37:41;87989.47;;;-145.17;57.31
32759;BME280;19125;52.360;9.974;2023-04-03T00:40:08;88019.25;;;-145.17;57.45
32759;BME280;19125;52.360;9.974;2023-04-03T00:42:33;88027.19;;;-145.17;57.63
32759;BME280;19125;52.360;9.974;2023-04-03T00:47:26;88076.84;;;-145.17;57.73
32759;BME280;19125;52.360;9.974;2023-04-03T00:49:52;88086.75;;;-145.17;57.59
32759;BME280;19125;52.360;9.974;2023-04-03T00:52:22;88076.84;;;-145.17;57.59
32759;BME280;19125;52.360;9.974;2023-04-03T00:54:49;88056.97;;;-145.17;57.63
32759;BME280;19125;52.360;9.974;2023-04-03T00:57:15;88060.94;;;-145.17;57.59
32759;BME280;19125;52.360;9.974;2023-04-03T00:59:49;88043.09;;;-145.17;57.61
32759;BME280;19125;52.360;9.974;2023-04-03T01:02:15;88064.91;;;-145.17;57.56
32759;BME280;19125;52.360;9.974;2023-04-03T01:04:43;88066.91;;;-145.17;57.65
32759;BME280;19125;52.360;9.974;2023-04-03T01:07:21;88066.91;;;-145.17;57.62
32759;BME280;19125;52.360;9.974;2023-04-03T01:09:49;88045.06;;;-145.17;57.45
32759;BME280;19125;52.360;9.974;2023-04-03T01:12:24;88066.91;;;-145.17;57.50
32759;BME280;19125;52.360;9.974;2023-04-03T01:14:53;88070.88;;;-145.17;57.70
32759;BME280;19125;52.360;9.974;2023-04-03T01:17:41;88074.84;;;-145.17;57.95
32759;BME280;19125;52.360;9.974;2023-04-03T01:20:36;88096.69;;;-145.17;57.82
32759;BME280;19125;52.360;9.974;2023-04-03T01:25:37;88094.69;;;-145.17;58.02
32759;BME280;19125;52.360;9.974;2023-04-03T01:28:03;88072.88;;;-145.17;57.89
32759;BME280;19125;52.360;9.974;2023-04-03T01:30:43;88045.06;;;-145.17;57.78
32759;BME280;19125;52.360;9.974;2023-04-03T01:33:10;88066.91;;;-145.17;57.81
32759;BME280;19125;52.360;9.974;2023-04-03T01:35:37;88092.72;;;-145.17;58.10
32759;BME280;19125;52.360;9.974;2023-04-03T01:38:02;88112.56;;;-145.17;57.92
32759;BME280;19125;52.360;9.974;2023-04-03T01:40:29;88102.63;;;-145.17;58.22
32759;BME280;19125;52.360;9.974;2023-04-03T01:42:55;88084.78;;;-145.17;58.38
32759;BME280;19125;52.360;9.974;2023-04-03T01:45:20;88110.59;;;-145.17;58.40
32759;BME280;19125;52.360;9.974;2023-04-03T01:47:45;88112.56;;;-145.17;58.60
32759;BME280;19125;52.360;9.974;2023-04-03T01:50:11;88170.13;;;-145.17;58.75
32759;BME280;19125;52.360;9.974;2023-04-03T01:52:36;88166.16;;;-145.17;58.67
32759;BME280;19125;52.360;9.974;2023-04-03T01:55:01;88144.34;;;-145.17;58.83
32759;BME280;19125;52.360;9.974;2023-04-03T01:57:27;88152.28;;;-145.17;59.21
32759;BME280;19125;52.360;9.974;2023-04-03T01:59:52;88188.00;;;-145.17;58.94
32759;BME280;19125;52.360;9.974;2023-04-03T02:02:17;88197.94;;;-145.17;58.98
32759;BME280;19125;52.360;9.974;2023-04-03T02:04:44;88190.00;;;-145.17;59.45
32759;BME280;19125;52.360;9.974;2023-04-03T02:07:11;88235.66;;;-145.17;59.29
32759;BME280;19125;52.360;9.974;2023-04-03T02:09:36;88241.63;;;-145.17;59.30
32759;BME280;19125;52.360;9.974;2023-04-03T02:12:02;88195.94;;;-145.17;59.63
32759;BME280;19125;52.360;9.974;2023-04-03T02:14:27;88233.69;;;-145.17;59.74
32759;BME280;19125;52.360;9.974;2023-04-03T02:16:53;88227.72;;;-145.17;59.94
32759;BME280;19125;52.360;9.974;2023-04-03T02:19:18;88277.34;;;-145.17;59.82
32759;BME280;19125;52.360;9.974;2023-04-03T02:21:44;88287.28;;;-145.17;59.77
32759;BME280;19125;52.360;9.974;2023-04-03T02:24:09;88287.28;;;-145.17;60.15
32759;BME280;19125;52.360;9.974;2023-04-03T02:26:35;88303.16;;;-145.17;60.09
32759;BME280;19125;52.360;9.974;2023-04-03T02:29:00;88293.25;;;-145.17;60.09
32759;BME280;19125;52.360;9.974;2023-04-03T02:31:25;88305.16;;;-145.17;60.34
32759;BME280;19125;52.360;9.974;2023-04-03T02:33:51;88321.03;;;-145.17;60.51
32759;BME280;19125;52.360;9.974;2023-04-03T02:36:16;88344.84;;;-145.17;60.49
32759;BME280;19125;52.360;9.974;2023-04-03T02:38:42;88342.88;;;-145.17;60.60
32759;BME280;19125;52.360;9.974;2023-04-03T02:41:10;88368.69;;;-145.17;60.88
32759;BME280;19125;52.360;9.974;2023-04-03T02:43:36;88374.63;;;-145.17;60.84
32759;BME280;19125;52.360;9.974;2023-04-03T02:46:02;88384.56;;;-145.17;61.02
32759;BME280;19125;52.360;9.974;2023-04-03T02:48:27;88402.44;;;-145.17;61.14
32759;BME280;19125;52.360;9.974;2023-04-03T02:50:54;88382.59;;;-145.17;61.34
32759;BME280;19125;52.360;9.974;2023-04-03T02:53:20;88380.59;;;-145.17;61.18
32759;BME280;19125;52.360;9.974;2023-04-03T02:55:45;88442.16;;;-145.17;61.36
32759;BME280;19125;52.360;9.974;2023-04-03T02:58:11;88442.16;;;-145.17;61.47
32759;BME280;19125;52.360;9.974;2023-04-03T03:00:37;88446.13;;;-145.17;61.44
32759;BME280;19125;52.360;9.974;2023-04-03T03:03:02;88444.13;;;-145.17;61.75
32759;BME280;19125;52.360;9.974;2023-04-03T03:05:28;88438.19;;;-145.17;61.73
32759;BME280;19125;52.360;9.974;2023-04-03T03:07:54;88481.84;;;-145.17;61.61
32759;BME280;19125;52.360;9.974;2023-04-03T03:10:19;88481.84;;;-145.17;61.83
32759;BME280;19125;52.360;9.974;2023-04-03T03:12:45;88473.91;;;-145.17;61.92
32759;BME280;19125;52.360;9.974;2023-04-03T03:15:11;88479.88;;;-145.17;61.94
32759;BME280;19125;52.360;9.974;2023-04-03T03:17:36;88483.84;;;-145.17;62.04
32759;BME280;19125;52.360;9.974;2023-04-03T03:20:03;88477.88;;;-145.17;62.08
32759;BME280;19125;52.360;9.974;2023-04-03T03:22:28;88509.66;;;-145.17;62.09
32759;BME280;19125;52.360;9.974;2023-04-03T03:24:54;88521.56;;;-145.17;62.01
32759;BME280;19125;52.360;9.974;2023-04-03T03:27:20;88533.47;;;-145.17;62.04
32759;BME280;19125;52.360;9.974;2023-04-03T03:29:45;88505.69;;;-145.17;62.10
32759;BME280;19125;52.360;9.974;2023-04-03T03:32:11;88525.53;;;-145.17;62.19
32759;BME280;19125;52.360;9.974;2023-04-03T03:34:36;88495.75;;;-145.17;61.92
32759;BME280;19125;52.360;9.974;2023-04-03T03:37:01;88481.84;;;-145.17;62.03
32759;BME280;19125;52.360;9.974;2023-04-03T03:39:27;88489.78;;;-145.17;62.07
32759;BME280;19125;52.360;9.974;2023-04-03T03:41:53;88557.31;;;-145.17;61.86
32759;BME280;19125;52.360;9.974;2023-04-03T03:44:19;88517.59;;;-145.17;61.82
32759;BME280;19125;52.360;9.974;2023-04-03T03:46:44;88489.78;;;-145.17;61.88
32759;BME280;19125;52.360;9.974;2023-04-03T03:49:10;88501.72;;;-145.17;62.08
32759;BME280;19125;52.360;9.974;2023-04-03T03:51:36;88473.91;;;-145.17;62.22
32759;BME280;19125;52.360;9.974;2023-04-03T03:54:03;88489.78;;;-145.17;61.79
32759;BME280;19125;52.360;9.974;2023-04-03T03:56:28;88485.81;;;-145.17;61.92
32759;BME280;19125;52.360;9.974;2023-04-03T03:58:53;88507.66;;;-145.17;62.20
32759;BME280;19125;52.360;9.974;2023-04-03T04:01:21;88507.66;;;-145.17;61.98
32759;BME280;19125;52.360;9.974;2023-04-03T04:03:47;88483.84;;;-145.17;62.17
32759;BME280;19125;52.360;9.974;2023-04-03T04:06:12;88473.91;;;-145.17;61.96
32759;BME280;19125;52.360;9.974;2023-04-03T04:08:38;88501.72;;;-145.17;62.00
32759;BME280;19125;52.360;9.974;2023-04-03T04:11:04;88505.69;;;-145.17;62.18
32759;BME280;19125;52.360;9.974;2023-04-03T04:13:29;88533.47;;;-145.17;62.27
32759;BME280;19125;52.360;9.974;2023-04-03T04:15:54;88519.59;;;-145.17;62.12
32759;BME280;19125;52.360;9.974;2023-04-03T04:18:20;88515.59;;;-145.17;62.23
32759;BME280;19125;52.360;9.974;2023-04-03T04:20:46;88505.69;;;-145.17;62.57
32759;BME280;19125;52.360;9.974;2023-04-03T04:23:11;88541.41;;;-145.17;62.46
32759;BME280;19125;52.360;9.974;2023-04-03T04:25:37;88557.31;;;-145.17;62.47
32759;BME280;19125;52.360;9.974;2023-04-03T04:28:02;88549.38;;;-145.17;62.63
32759;BME280;19125;52.360;9.974;2023-04-03T04:30:28;88537.44;;;-145.17;62.67
32759;BME280;19125;52.360;9.974;2023-04-03T04:32:54;88549.38;;;-145.17;62.39
32759;BME280;19125;52.360;9.974;2023-04-03T04:35:19;88551.34;;;-145.17;62.82
32759;BME280;19125;52.360;9.974;2023-04-03T04:37:44;88539.44;;;-145.17;62.84
32759;BME280;19125;52.360;9.974;2023-04-03T04:40:10;88535.47;;;-145.17;62.63
32759;BME280;19125;52.360;9.974;2023-04-03T04:42:35;88551.34;;;-145.17;62.77
32759;BME280;19125;52.360;9.974;2023-04-03T04:45:01;88569.22;;;-145.17;62.79
32759;BME280;19125;52.360;9.974;2023-04-03T04:47:28;88567.22;;;-145.17;62.62
32759;BME280;19125;52.360;9.974;2023-04-03T04:49:53;88529.50;;;-145.17;62.80
32759;BME280;19125;52.360;9.974;2023-04-03T04:52:20;88573.19;;;-145.17;62.64
32759;BME280;19125;52.360;9.974;2023-04-03T04:54:45;88541.41;;;-145.17;62.75
32759;BME280;19125;52.360;9.974;2023-04-03T04:57:10;88569.22;;;-145.17;63.02
32759;BME280;19125;52.360;9.974;2023-04-03T04:59:36;88622.84;;;-145.17;62.76
32759;BME280;19125;52.360;9.974;2023-04-03T05:02:01;88577.16;;;-145.17;62.90
32759;BME280;19125;52.360;9.974;2023-04-03T05:04:27;88591.06;;;-145.17;63.11
32759;BME280;19125;52.360;9.974;2023-04-03T05:06:52;88577.16;;;-145.17;63.21
32759;BME280;19125;52.360;9.974;2023-04-03T05:09:17;88551.34;;;-145.17;63.17
32759;BME280;19125;52.360;9.974;2023-04-03T05:11:43;88589.06;;;-145.17;63.04
32759;BME280;19125;52.360;9.974;2023-04-03T05:14:08;88612.91;;;-145.17;63.41
32759;BME280;19125;52.360;9.974;2023-04-03T05:16:34;88577.16;;;-145.17;63.14
32759;BME280;19125;52.360;9.974;2023-04-03T05:18:59;88579.16;;;-145.17;63.30
32759;BME280;19125;52.360;9.974;2023-04-03T05:21:25;88593.03;;;-145.17;63.16
32759;BME280;19125;52.360;9.974;2023-04-03T05:23:51;88591.06;;;-145.17;63.49
32759;BME280;19125;52.360;9.974;2023-04-03T05:26:17;88595.03;;;-145.17;63.44
32759;BME280;19125;52.360;9.974;2023-04-03T05:28:43;88595.03;;;-145.17;63.42
32759;BME280;19125;52.360;9.974;2023-04-03T05:31:08;88553.34;;;-145.17;63.22
32759;BME280;19125;52.360;9.974;2023-04-03T05:33:33;88573.19;;;-145.17;63.36
32759;BME280;19125;52.360;9.974;2023-04-03T05:36:03;88628.78;;;-145.17;63.49
32759;BME280;19125;52.360;9.974;2023-04-03T05:38:28;88597.03;;;-145.17;63.55
32759;BME280;19125;52.360;9.974;2023-04-03T05:40:54;88587.09;;;-145.17;63.75
32759;BME280;19125;52.360;9.974;2023-04-03T05:43:20;88602.97;;;-145.17;63.71
32759;BME280;19125;52.360;9.974;2023-04-03T05:45:47;88557.31;;;-145.17;63.49
32759;BME280;19125;52.360;9.974;2023-04-03T05:48:12;88549.38;;;-145.17;63.27
32759;BME280;19125;52.360;9.974;2023-04-03T05:50:37;88529.50;;;-145.17;63.65
32759;BME280;19125;52.360;9.974;2023-04-03T05:53:07;88517.59;;;-145.17;62.96
32759;BME280;19125;52.360;9.974;2023-04-03T05:55:35;88553.34;;;-145.17;62.77
32759;BME280;19125;52.360;9.974;2023-04-03T05:58:00;88513.63;;;-145.17;62.78
32759;BME280;19125;52.360;9.974;2023-04-03T06:00:25;88547.38;;;-145.17;62.73
32759;BME280;19125;52.360;9.974;2023-04-03T06:02:52;88505.69;;;-145.17;62.38
32759;BME280;19125;52.360;9.974;2023-04-03T06:05:17;88469.94;;;-145.17;62.57
32759;BME280;19125;52.360;9.974;2023-04-03T06:07:43;88418.31;;;-145.17;62.28
32759;BME280;19125;52.360;9.974;2023-04-03T06:10:11;88410.38;;;-145.17;61.84
32759;BME280;19125;52.360;9.974;2023-04-03T06:12:37;88382.59;;;-145.17;61.84
32759;BME280;19125;52.360;9.974;2023-04-03T06:15:03;88388.53;;;-145.17;61.36
32759;BME280;19125;52.360;9.974;2023-04-03T06:17:28;88323.03;;;-145.17;61.30
32759;BME280;19125;52.360;9.974;2023-04-03T06:19:54;88323.03;;;-145.17;61.07
32759;BME280;19125;52.360;9.974;2023-04-03T06:22:20;88267.44;;;-145.17;60.79
32759;BME280;19125;52.360;9.974;2023-04-03T06:24:46;88227.72;;;-145.17;60.51
32759;BME280;19125;52.360;9.974;2023-04-03T06:27:12;88215.81;;;-145.17;60.33
32759;BME280;19125;52.360;9.974;2023-04-03T06:29:37;88124.47;;;-145.17;60.03
32759;BME280;19125;52.360;9.974;2023-04-03T06:32:03;88070.88;;;-145.17;59.15
32759;BME280;19125;52.360;9.974;2023-04-03T06:34:28;88029.19;;;-145.17;59.05
32759;BME280;19125;52.360;9.974;2023-04-03T06:36:53;87997.41;;;-145.17;58.66
32759;BME280;19125;52.360;9.974;2023-04-03T06:39:20;87987.50;;;-145.17;57.89
32759;BME280;19125;52.360;9.974;2023-04-03T06:41:47;87908.09;;;-145.17;57.78
32759;BME280;19125;52.360;9.974;2023-04-03T06:44:12;87874.34;;;-145.17;57.03
32759;BME280;19125;52.360;9.974;2023-04-03T06:46:40;87850.50;;;-145.17;57.23
32759;BME280;19125;52.360;9.974;2023-04-03T06:49:06;87826.69;;;-145.17;56.62
32759;BME280;19125;52.360;9.974;2023-04-03T06:51:35;87767.13;;;-145.17;55.82
32759;BME280;19125;52.360;9.974;2023-04-03T06:54:02;87737.34;;;-145.17;55.81
32759;BME280;19125;52.360;9.974;2023-04-03T06:56:28;87735.38;;;-145.17;55.08
32759;BME280;19125;52.360;9.974;2023-04-03T06:58:55;87671.84;;;-145.17;55.27
32759;BME280;19125;52.360;9.974;2023-04-03T07:01:22;87659.94;;;-145.17;54.28
32759;BME280;19125;52.360;9.974;2023-04-03T07:03:49;87667.88;;;-145.17;54.32
32759;BME280;19125;52.360;9.974;2023-04-03T07:06:18;87596.41;;;-145.17;53.98
32759;BME280;19125;52.360;9.974;2023-04-03T07:08:44;87608.31;;;-145.17;52.96
32759;BME280;19125;52.360;9.974;2023-04-03T07:11:10;87550.75;;;-145.17;53.17
32759;BME280;19125;52.360;9.974;2023-04-03T07:13:36;87546.78;;;-145.17;52.45
32759;BME280;19125;52.360;9.974;2023-04-03T07:16:02;87534.88;;;-145.17;52.12
32759;BME280;19125;52.360;9.974;2023-04-03T07:18:30;87473.34;;;-145.17;51.10
32759;BME280;19125;52.360;9.974;2023-04-03T07:20:56;87469.38;;;-145.17;50.50
32759;BME280;19125;52.360;9.974;2023-04-03T07:23:21;87433.66;;;-145.17;50.51
32759;BME280;19125;52.360;9.974;2023-04-03T07:25:47;87425.69;;;-145.17;49.90
32759;BME280;19125;52.360;9.974;2023-04-03T07:28:14;87397.91;;;-145.17;49.24
32759;BME280;19125;52.360;9.974;2023-04-03T07:30:48;87382.03;;;-145.17;49.50
32759;BME280;19125;52.360;9.974;2023-04-03T07:33:14;87389.97;;;-145.17;48.65
32759;BME280;19125;52.360;9.974;2023-04-03T07:35:41;87348.28;;;-145.17;49.06
32759;BME280;19125;52.360;9.974;2023-04-03T07:38:07;87370.13;;;-145.17;48.75
32759;BME280;19125;52.360;9.974;2023-04-03T07:40:32;87358.22;;;-145.17;48.37
32759;BME280;19125;52.360;9.974;2023-04-03T07:42:58;87330.44;;;-145.17;48.28
32759;BME280;19125;52.360;9.974;2023-04-03T07:45:24;87320.50;;;-145.17;47.89
32759;BME280;19125;52.360;9.974;2023-04-03T07:47:49;87348.28;;;-145.17;47.75
32759;BME280;19125;52.360;9.974;2023-04-03T07:50:15;87300.66;;;-145.17;47.61
32759;BME280;19125;52.360;9.974;2023-04-03T07:52:41;87322.47;;;-145.17;47.13
32759;BME280;19125;52.360;9.974;2023-04-03T07:55:07;87348.28;;;-145.17;47.26
32759;BME280;19125;52.360;9.974;2023-04-03T07:57:32;87312.56;;;-145.17;46.98
32759;BME280;19125;52.360;9.974;2023-04-03T07:59:58;87294.69;;;-145.17;47.68
32759;BME280;19125;52.360;9.974;2023-04-03T08:02:23;87296.69;;;-145.17;47.55
32759;BME280;19125;52.360;9.974;2023-04-03T08:04:48;87280.81;;;-145.17;47.36
32759;BME280;19125;52.360;9.974;2023-04-03T08:07:14;87258.97;;;-145.17;47.02
32759;BME280;19125;52.360;9.974;2023-04-03T08:09:39;87274.84;;;-145.17;46.51
32759;BME280;19125;52.360;9.974;2023-04-03T08:12:04;87237.13;;;-145.17;46.40
32759;BME280;19125;52.360;9.974;2023-04-03T08:14:31;87247.06;;;-145.17;46.49
32759;BME280;19125;52.360;9.974;2023-04-03T08:16:59;87237.13;;;-145.17;47.04
32759;BME280;19125;52.360;9.974;2023-04-03T08:19:25;87237.13;;;-145.17;46.28
32759;BME280;19125;52.360;9.974;2023-04-03T08:21:51;87243.09;;;-145.17;46.75
32759;BME280;19125;52.360;9.974;2023-04-03T08:24:17;87217.28;;;-145.17;45.72
32759;BME280;19125;52.360;9.974;2023-04-03T08:26:42;87251.03;;;-145.17;46.04
32759;BME280;19125;52.360;9.974;2023-04-03T08:29:09;87209.34;;;-145.17;45.78
32759;BME280;19125;52.360;9.974;2023-04-03T08:31:34;87207.34;;;-145.17;45.31
32759;BME280;19125;52.360;9.974;2023-04-03T08:33:59;87177.59;;;-145.17;45.09
32759;BME280;19125;52.360;9.974;2023-04-03T08:36:27;87155.75;;;-145.17;44.57
32759;BME280;19125;52.360;9.974;2023-04-03T08:38:53;87165.69;;;-145.17;43.37
32759;BME280;19125;52.360;9.974;2023-04-03T08:41:36;87110.09;;;-145.17;43.73
32759;BME280;19125;52.360;9.974;2023-04-03T08:49:56;87165.69;;;-145.17;41.86
32759;BME280;19125;52.360;9.974;2023-04-03T08:54:55;87112.09;;;-145.17;41.90
32759;BME280;19125;52.360;9.974;2023-04-03T08:57:38;87072.38;;;-145.17;42.03
32759;BME280;19125;52.360;9.974;2023-04-03T09:00:25;87072.38;;;-145.17;40.81
32759;BME280;19125;52.360;9.974;2023-04-03T09:02:54;87036.66;;;-145.17;39.09
32759;BME280;19125;52.360;9.974;2023-04-03T09:08:25;87026.75;;;-145.17;39.15
32759;BME280;19125;52.360;9.974;2023-04-03T09:11:00;87028.72;;;-145.17;38.05
32759;BME280;19125;52.360;9.974;2023-04-03T09:13:48;87052.53;;;-145.17;37.94
32759;BME280;19125;52.360;9.974;2023-04-03T09:16:42;87032.69;;;-145.17;37.72
32759;BME280;19125;52.360;9.974;2023-04-03T09:19:46;87008.88;;;-145.17;37.11
32759;BME280;19125;52.360;9.974;2023-04-03T09:22:21;87048.56;;;-145.17;36.65
32759;BME280;19125;52.360;9.974;2023-04-03T09:24:55;87026.75;;;-145.17;37.62
32759;BME280;19125;52.360;9.974;2023-04-03T09:27:22;87000.94;;;-145.17;37.53
32759;BME280;19125;52.360;9.974;2023-04-03T09:29:48;87016.81;;;-145.17;37.24
32759;BME280;19125;52.360;9.974;2023-04-03T09:32:29;86993.00;;;-145.17;37.09
32759;BME280;19125;52.360;9.974;2023-04-03T09:34:59;86965.22;;;-145.17;36.79
32759;BME280;19125;52.360;9.974;2023-04-03T09:38:27;86937.44;;;-145.17;36.30
32759;BME280;19125;52.360;9.974;2023-04-03T09:42:52;86949.34;;;-145.17;34.96
32759;BME280;19125;52.360;9.974;2023-04-03T09:45:27;86961.25;;;-145.17;34.30
32759;BME280;19125;52.360;9.974;2023-04-03T09:48:16;86981.09;;;-145.17;34.42
32759;BME280;19125;52.360;9.974;2023-04-03T09:53:42;86945.38;;;-145.17;33.88
32759;BME280;19125;52.360;9.974;2023-04-03T09:58:40;86909.63;;;-145.17;33.62
32759;BME280;19125;52.360;9.974;2023-04-03T10:01:36;86901.69;;;-145.17;34.01
32759;BME280;19125;52.360;9.974;2023-04-03T10:04:13;86923.53;;;-145.17;35.13
32759;BME280;19125;52.360;9.974;2023-04-03T10:06:44;86975.13;;;-145.17;34.43
32759;BME280;19125;52.360;9.974;2023-04-03T10:14:22;87004.91;;;-145.17;34.00
32759;BME280;19125;52.360;9.974;2023-04-03T10:16:53;87024.75;;;-145.17;34.17
32759;BME280;19125;52.360;9.974;2023-04-03T10:38:16;86822.31;;;-145.17;32.93
32759;BME280;19125;52.360;9.974;2023-04-03T10:40:52;86810.41;;;-145.17;32.18
32759;BME280;19125;52.360;9.974;2023-04-03T10:43:50;86786.59;;;-145.17;33.79
32759;BME280;19125;52.360;9.974;2023-04-03T10:46:36;86766.75;;;-145.17;32.83
32759;BME280;19125;52.360;9.974;2023-04-03T10:51:48;86788.56;;;-145.17;32.91
32759;BME280;19125;52.360;9.974;2023-04-03T10:54:26;86830.25;;;-145.17;31.52
32759;BME280;19125;52.360;9.974;2023-04-03T10:57:23;86893.75;;;-145.17;31.62
32759;BME280;19125;52.360;9.974;2023-04-03T10:59:58;86939.41;;;-145.17;32.24
32759;BME280;19125;52.360;9.974;2023-04-03T11:05:05;86897.72;;;-145.17;33.95
32759;BME280;19125;52.360;9.974;2023-04-03T11:07:39;86919.56;;;-145.17;32.61
32759;BME280;19125;52.360;9.974;2023-04-03T11:10:28;86931.47;;;-145.17;32.49
32759;BME280;19125;52.360;9.974;2023-04-03T11:13:24;86947.34;;;-145.17;32.29
32759;BME280;19125;52.360;9.974;2023-04-03T11:15:53;86905.66;;;-145.17;32.71
32759;BME280;19125;52.360;9.974;2023-04-03T11:18:23;86913.59;;;-145.17;32.97
32759;BME280;19125;52.360;9.974;2023-04-03T11:21:06;86941.38;;;-145.17;33.69
32759;BME280;19125;52.360;9.974;2023-04-03T11:23:35;86945.38;;;-145.17;32.52
32759;BME280;19125;52.360;9.974;2023-04-03T11:26:11;86935.44;;;-145.17;32.89
32759;BME280;19125;52.360;9.974;2023-04-03T11:28:37;86893.75;;;-145.17;33.19
32759;BME280;19125;52.360;9.974;2023-04-03T11:34:22;86834.22;;;-145.17;32.84
32759;BME280;19125;52.360;9.974;2023-04-03T11:36:44;86830.25;;;-145.17;32.91
32759;BME280;19125;52.360;9.974;2023-04-03T11:41:48;86820.31;;;-145.17;32.00
32759;BME280;19125;52.360;9.974;2023-04-03T11:44:49;86869.94;;;-145.17;31.62
32759;BME280;19125;52.360;9.974;2023-04-03T11:47:51;86852.09;;;-145.17;31.66
32759;BME280;19125;52.360;9.974;2023-04-03T11:58:30;86838.19;;;-145.17;32.22
32759;BME280;19125;52.360;9.974;2023-04-03T12:00:59;86848.13;;;-145.17;32.17
32759;BME280;19125;52.360;9.974;2023-04-03T12:08:44;86881.84;;;-145.17;31.44
32759;BME280;19125;52.360;9.974;2023-04-03T12:45:24;86784.59;;;-145.17;29.29
32759;BME280;19125;52.360;9.974;2023-04-03T12:47:52;86758.81;;;-145.17;29.62
32759;BME280;19125;52.360;9.974;2023-04-03T12:50:27;86731.00;;;-145.17;29.93
32759;BME280;19125;52.360;9.974;2023-04-03T12:53:31;86667.50;;;-145.17;30.69
32759;BME280;19125;52.360;9.974;2023-04-03T12:56:23;86651.63;;;-145.17;28.95
32759;BME280;19125;52.360;9.974;2023-04-03T12:58:50;86659.56;;;-145.17;29.18
32759;BME280;19125;52.360;9.974;2023-04-03T13:01:20;86671.47;;;-145.17;27.96
32759;BME280;19125;52.360;9.974;2023-04-03T13:03:50;86707.19;;;-145.17;28.92
32759;BME280;19125;52.360;9.974;2023-04-03T13:06:26;86715.13;;;-145.17;29.59
32759;BME280;19125;52.360;9.974;2023-04-03T13:08:56;86721.09;;;-145.17;28.84
32759;BME280;19125;52.360;9.974;2023-04-03T13:11:22;86778.66;;;-145.17;28.74
32759;BME280;19125;52.360;9.974;2023-04-03T13:14:00;86806.44;;;-145.17;29.22
32759;BME280;19125;52.360;9.974;2023-04-03T13:16:27;86844.13;;;-145.17;29.74
32759;BME280;19125;52.360;9.974;2023-04-03T13:18:53;86822.31;;;-145.17;30.42
32759;BME280;19125;52.360;9.974;2023-04-03T13:21:22;86826.28;;;-145.17;30.33
32759;BME280;19125;52.360;9.974;2023-04-03T13:23:50;86858.03;;;-145.17;29.98
32759;BME280;19125;52.360;9.974;2023-04-03T13:26:18;86806.44;;;-145.17;30.00
32759;BME280;19125;52.360;9.974;2023-04-03T13:28:45;86770.72;;;-145.17;28.93
32759;BME280;19125;52.360;9.974;2023-04-03T13:33:45;86756.81;;;-145.17;28.30
32759;BME280;19125;52.360;9.974;2023-04-03T13:36:20;86750.88;;;-145.17;28.38
32759;BME280;19125;52.360;9.974;2023-04-03T13:39:17;86748.88;;;-145.17;28.83
32759;BME280;19125;52.360;9.974;2023-04-03T13:41:46;86719.09;;;-145.17;29.64
32759;BME280;19125;52.360;9.974;2023-04-03T13:46:47;86629.81;;;-145.17;30.29
32759;BME280;19125;52.360;9.974;2023-04-03T13:51:53;86627.81;;;-145.17;28.47
32759;BME280;19125;52.360;9.974;2023-04-03T13:54:34;86592.09;;;-145.17;28.26
32759;BME280;19125;52.360;9.974;2023-04-03T13:57:02;86651.63;;;-145.17;28.43
32759;BME280;19125;52.360;9.974;2023-04-03T13:59:32;86705.22;;;-145.17;28.82
32759;BME280;19125;52.360;9.974;2023-04-03T14:04:31;86778.66;;;-145.17;28.79
32759;BME280;19125;52.360;9.974;2023-04-03T14:06:58;86762.78;;;-145.17;29.05
32759;BME280;19125;52.360;9.974;2023-04-03T14:09:25;86772.69;;;-145.17;28.19
32759;BME280;19125;52.360;9.974;2023-04-03T14:11:54;86788.56;;;-145.17;28.36
32759;BME280;19125;52.360;9.974;2023-04-03T14:14:26;86707.19;;;-145.17;28.21
32759;BME280;19125;52.360;9.974;2023-04-03T14:16:57;86738.94;;;-145.17;28.63
32759;BME280;19125;52.360;9.974;2023-04-03T14:19:34;86723.06;;;-145.17;27.72
32759;BME280;19125;52.360;9.974;2023-04-03T14:22:15;86742.91;;;-145.17;28.45
32759;BME280;19125;52.360;9.974;2023-04-03T14:24:41;86675.44;;;-145.17;28.25
32759;BME280;19125;52.360;9.974;2023-04-03T14:27:23;86643.69;;;-145.17;27.07
32759;BME280;19125;52.360;9.974;2023-04-03T14:29:51;86685.38;;;-145.17;27.82
32759;BME280;19125;52.360;9.974;2023-04-03T14:32:20;86731.00;;;-145.17;28.89
32759;BME280;19125;52.360;9.974;2023-04-03T14:34:47;86723.06;;;-145.17;28.53
32759;BME280;19125;52.360;9.974;2023-04-03T14:37:16;86750.88;;;-145.17;29.24
32759;BME280;19125;52.360;9.974;2023-04-03T14:39:43;86750.88;;;-145.17;30.00
32759;BME280;19125;52.360;9.974;2023-04-03T14:42:15;86758.81;;;-145.17;29.46
32759;BME280;19125;52.360;9.974;2023-04-03T14:44:41;86758.81;;;-145.17;29.46
32759;BME280;19125;52.360;9.974;2023-04-03T14:47:12;86798.50;;;-145.17;29.98